createdAt,value
2022-07-27T00:00:56.074Z,17.50
2022-07-27T00:03:23.372Z,17.50
2022-07-27T00:05:50.874Z,17.40
2022-07-27T00:08:20.353Z,17.40
2022-07-27T00:10:47.094Z,17.30
2022-07-27T00:13:13.800Z,17.20
2022-07-27T00:15:40.565Z,17.20
2022-07-27T00:18:07.401Z,17.20
2022-07-27T00:20:34.466Z,17.20
2022-07-27T00:23:01.252Z,17.20
2022-07-27T00:25:28.173Z,17.10
2022-07-27T00:27:59.059Z,17.00
2022-07-27T00:30:26.603Z,17.00
2022-07-27T00:32:53.880Z,17.00
2022-07-27T00:35:20.790Z,16.90
2022-07-27T00:37:47.496Z,17.00
2022-07-27T00:40:15.157Z,16.90
2022-07-27T00:42:42.009Z,17.00
2022-07-27T00:45:09.337Z,17.00
2022-07-27T00:47:36.249Z,16.90
2022-07-27T00:50:04.500Z,16.90
2022-07-27T00:52:31.456Z,17.00
2022-07-27T00:54:59.468Z,17.00
2022-07-27T00:57:30.490Z,16.90
2022-07-27T00:59:57.234Z,16.90
2022-07-27T01:02:24.047Z,16.90
2022-07-27T01:04:53.707Z,16.90
2022-07-27T01:07:24.379Z,16.90
2022-07-27T01:09:57.483Z,16.90
2022-07-27T01:12:32.232Z,16.80
2022-07-27T01:15:00.180Z,16.80
2022-07-27T01:17:30.701Z,16.70
2022-07-27T01:19:59.439Z,16.70
2022-07-27T01:22:26.196Z,16.70
2022-07-27T01:24:53.104Z,16.60
2022-07-27T01:27:19.874Z,16.70
2022-07-27T01:29:46.771Z,16.50
2022-07-27T01:32:13.600Z,16.60
2022-07-27T01:37:08.072Z,16.60
2022-07-27T01:39:34.919Z,16.60
2022-07-27T01:42:02.136Z,16.50
2022-07-27T01:44:29.042Z,16.50
2022-07-27T01:46:55.833Z,16.50
2022-07-27T01:49:22.778Z,16.50
2022-07-27T01:51:49.575Z,16.40
2022-07-27T01:54:16.481Z,16.40
2022-07-27T01:56:43.417Z,16.30
2022-07-27T01:59:16.174Z,16.30
2022-07-27T02:01:44.529Z,16.30
2022-07-27T02:04:11.700Z,16.20
2022-07-27T02:11:51.666Z,16.10
2022-07-27T02:14:18.982Z,16.00
2022-07-27T02:16:48.269Z,16.00
2022-07-27T02:19:17.125Z,15.90
2022-07-27T02:21:45.182Z,15.90
2022-07-27T02:24:12.135Z,15.90
2022-07-27T02:26:38.910Z,15.90
2022-07-27T02:29:05.705Z,15.90
2022-07-27T02:31:32.885Z,15.90
2022-07-27T02:34:00.132Z,15.70
2022-07-27T02:36:29.194Z,15.70
2022-07-27T02:38:56.843Z,15.70
2022-07-27T02:41:23.726Z,15.60
2022-07-27T02:43:50.613Z,15.60
2022-07-27T02:51:11.775Z,15.50
2022-07-27T02:53:38.523Z,15.50
2022-07-27T02:56:05.369Z,15.50
2022-07-27T03:00:59.291Z,15.50
2022-07-27T03:03:33.276Z,15.50
2022-07-27T03:06:03.549Z,15.40
2022-07-27T03:13:24.595Z,15.30
2022-07-27T03:15:51.650Z,15.20
2022-07-27T03:21:00.846Z,15.20
2022-07-27T03:23:27.541Z,15.20
2022-07-27T03:25:54.330Z,15.10
2022-07-27T03:28:21.030Z,15.10
2022-07-27T03:30:47.812Z,15.10
2022-07-27T03:33:14.538Z,15.00
2022-07-27T03:35:41.332Z,15.00
2022-07-27T03:40:38.426Z,14.90
2022-07-27T03:43:05.142Z,14.90
2022-07-27T03:45:32.000Z,14.90
2022-07-27T03:47:58.765Z,14.80
2022-07-27T03:50:25.524Z,14.80
2022-07-27T03:52:52.640Z,14.80
2022-07-27T03:55:20.606Z,14.80
2022-07-27T03:57:47.406Z,14.70
2022-07-27T04:00:15.699Z,14.80
2022-07-27T04:02:42.749Z,14.90
2022-07-27T04:05:10.772Z,15.00
2022-07-27T04:07:37.852Z,15.00
2022-07-27T04:10:05.811Z,14.90
2022-07-27T04:12:38.507Z,14.90
2022-07-27T04:15:07.068Z,15.10
2022-07-27T04:17:55.466Z,15.00
2022-07-27T04:20:20.671Z,15.00
2022-07-27T04:25:15.048Z,14.90
2022-07-27T04:27:41.787Z,14.80
2022-07-27T04:32:36.767Z,14.80
2022-07-27T04:35:03.796Z,14.80
2022-07-27T04:37:32.332Z,14.80
2022-07-27T04:39:59.292Z,15.00
2022-07-27T04:44:53.221Z,14.90
2022-07-27T04:49:47.332Z,15.00
2022-07-27T04:52:17.623Z,15.10
2022-07-27T04:54:45.970Z,15.10
2022-07-27T04:57:12.769Z,15.20
2022-07-27T04:59:39.501Z,15.10
2022-07-27T05:02:06.196Z,15.20
2022-07-27T05:04:32.963Z,15.40
2022-07-27T05:06:59.981Z,15.30
2022-07-27T05:09:26.797Z,15.40
2022-07-27T05:11:53.547Z,15.40
2022-07-27T05:14:21.743Z,15.50
2022-07-27T05:16:49.168Z,15.30
2022-07-27T05:19:16.273Z,15.40
2022-07-27T05:21:43.488Z,15.40
2022-07-27T05:24:10.354Z,15.40
2022-07-27T05:26:37.741Z,15.40
2022-07-27T05:29:05.133Z,15.50
2022-07-27T05:31:31.862Z,15.60
2022-07-27T05:33:58.838Z,15.60
2022-07-27T05:36:26.052Z,15.70
2022-07-27T05:38:52.758Z,15.70
2022-07-27T05:41:27.008Z,15.80
2022-07-27T05:43:55.049Z,15.80
2022-07-27T05:46:22.824Z,16.10
2022-07-27T05:48:50.600Z,16.30
2022-07-27T05:51:17.447Z,17.40
2022-07-27T05:53:44.253Z,18.70
2022-07-27T05:56:11.408Z,20.00
2022-07-27T05:58:38.126Z,21.10
2022-07-27T06:01:04.937Z,22.30
2022-07-27T06:03:31.785Z,23.30
2022-07-27T06:06:17.489Z,23.90
2022-07-27T06:08:44.771Z,23.90
2022-07-27T06:11:11.774Z,24.10
2022-07-27T06:13:41.836Z,24.50
2022-07-27T06:16:09.896Z,25.00
2022-07-27T06:18:36.879Z,24.80
2022-07-27T06:21:04.600Z,25.10
2022-07-27T06:23:31.377Z,25.30
2022-07-27T06:25:58.278Z,24.90
2022-07-27T06:28:25.091Z,23.70
2022-07-27T06:30:53.556Z,22.90
2022-07-27T06:33:27.738Z,22.10
2022-07-27T06:35:57.117Z,21.60
2022-07-27T06:38:25.569Z,21.20
2022-07-27T06:40:53.098Z,20.90
2022-07-27T06:43:24.241Z,20.90
2022-07-27T06:45:51.483Z,20.70
2022-07-27T06:48:18.217Z,21.60
2022-07-27T06:50:45.052Z,22.10
2022-07-27T06:53:11.751Z,21.90
2022-07-27T06:55:38.594Z,21.40
2022-07-27T06:58:05.671Z,20.20
2022-07-27T07:00:32.527Z,20.00
2022-07-27T07:03:02.785Z,19.40
2022-07-27T07:05:31.219Z,19.50
2022-07-27T07:07:58.668Z,18.70
2022-07-27T07:10:26.495Z,18.70
2022-07-27T07:12:57.157Z,18.90
2022-07-27T07:15:26.211Z,18.90
2022-07-27T07:17:54.177Z,19.10
2022-07-27T07:20:20.962Z,19.20
2022-07-27T07:22:47.690Z,19.40
2022-07-27T07:25:14.469Z,19.20
2022-07-27T07:27:41.281Z,19.30
2022-07-27T07:30:08.730Z,19.40
2022-07-27T07:32:35.424Z,19.30
2022-07-27T07:35:04.002Z,19.30
2022-07-27T07:37:33.893Z,18.80
2022-07-27T07:40:18.874Z,19.00
2022-07-27T07:42:50.006Z,19.20
2022-07-27T07:45:16.858Z,19.30
2022-07-27T07:47:43.811Z,19.50
2022-07-27T07:50:11.017Z,19.50
2022-07-27T07:52:37.729Z,19.60
2022-07-27T07:55:05.318Z,19.80
2022-07-27T07:57:32.164Z,19.80
2022-07-27T07:59:58.959Z,19.70
2022-07-27T08:02:25.795Z,19.70
2022-07-27T08:04:55.504Z,19.70
2022-07-27T08:07:22.235Z,19.60
2022-07-27T08:09:48.992Z,19.50
2022-07-27T08:12:15.771Z,19.70
2022-07-27T08:14:42.486Z,19.80
2022-07-27T08:17:09.192Z,20.00
2022-07-27T08:19:40.115Z,19.90
2022-07-27T08:22:07.154Z,20.20
2022-07-27T08:24:34.138Z,20.00
2022-07-27T08:27:01.409Z,20.00
2022-07-27T08:29:36.533Z,20.10
2022-07-27T08:32:06.032Z,20.20
2022-07-27T08:34:33.187Z,20.50
2022-07-27T08:36:59.969Z,20.60
2022-07-27T08:40:20.021Z,20.30
2022-07-27T08:42:13.521Z,20.60
2022-07-27T08:44:41.251Z,21.00
2022-07-27T08:47:10.490Z,20.90
2022-07-27T08:49:43.531Z,21.10
2022-07-27T08:52:11.797Z,21.20
2022-07-27T08:54:40.478Z,21.40
2022-07-27T08:57:08.876Z,21.20
2022-07-27T08:59:36.141Z,21.00
2022-07-27T09:02:05.095Z,20.60
2022-07-27T09:04:34.756Z,20.80
2022-07-27T09:07:01.543Z,20.80
2022-07-27T09:09:28.262Z,20.80
2022-07-27T09:12:11.247Z,20.80
2022-07-27T09:14:40.274Z,20.90
2022-07-27T09:20:19.866Z,21.60
2022-07-27T09:22:52.320Z,21.70
2022-07-27T09:26:01.654Z,21.50
2022-07-27T09:28:29.869Z,21.40
2022-07-27T09:31:09.282Z,21.10
2022-07-27T09:33:42.670Z,20.80
2022-07-27T09:36:09.984Z,20.80
2022-07-27T09:38:36.879Z,21.10
2022-07-27T09:41:07.881Z,21.30
2022-07-27T09:46:38.304Z,21.40
2022-07-27T09:49:27.067Z,21.20
2022-07-27T09:52:01.394Z,21.10
2022-07-27T09:54:43.331Z,21.40
2022-07-27T09:57:10.660Z,21.40
2022-07-27T09:59:37.365Z,21.10
2022-07-27T10:02:05.209Z,21.30
2022-07-27T10:04:33.635Z,21.80
2022-07-27T10:07:03.319Z,22.20
2022-07-27T10:09:33.350Z,22.20
2022-07-27T10:12:01.630Z,22.40
2022-07-27T10:14:28.368Z,22.00
2022-07-27T10:16:56.083Z,22.00
2022-07-27T10:19:47.067Z,22.10
2022-07-27T10:22:15.024Z,22.00
2022-07-27T10:24:41.847Z,21.90
2022-07-27T10:27:30.046Z,21.90
2022-07-27T10:29:57.779Z,21.70
2022-07-27T10:32:26.168Z,21.70
2022-07-27T10:34:53.402Z,21.50
2022-07-27T10:37:28.274Z,21.60
2022-07-27T10:40:16.086Z,21.90
2022-07-27T10:42:46.130Z,22.00
2022-07-27T10:45:18.346Z,22.20
2022-07-27T10:47:47.422Z,22.20
2022-07-27T10:50:17.124Z,22.20
2022-07-27T10:53:00.087Z,22.50
2022-07-27T10:55:30.318Z,22.60
2022-07-27T10:58:02.552Z,22.60
2022-07-27T11:00:55.459Z,23.50
2022-07-27T11:03:27.981Z,21.70
2022-07-27T11:06:06.718Z,21.50
2022-07-27T11:08:47.332Z,21.60
2022-07-27T11:11:24.678Z,21.80
2022-07-27T11:13:57.693Z,21.40
2022-07-27T11:16:26.797Z,19.70
2022-07-27T11:19:01.416Z,22.10
2022-07-27T11:21:38.955Z,22.10
2022-07-27T11:24:14.788Z,22.10
2022-07-27T11:26:44.594Z,22.10
2022-07-27T11:29:14.278Z,22.10
2022-07-27T11:31:59.201Z,22.30
2022-07-27T11:34:35.527Z,22.20
2022-07-27T11:37:05.437Z,22.50
2022-07-27T11:42:23.490Z,23.00
2022-07-27T11:44:52.842Z,22.70
2022-07-27T11:47:21.712Z,22.90
2022-07-27T11:49:48.604Z,23.00
2022-07-27T11:52:18.492Z,22.80
2022-07-27T11:54:51.658Z,22.80
2022-07-27T11:57:22.691Z,22.90
2022-07-27T11:59:49.510Z,22.80
2022-07-27T12:02:19.805Z,22.80
2022-07-27T12:04:48.441Z,22.60
2022-07-27T12:07:21.893Z,22.10
2022-07-27T12:09:53.233Z,22.10
2022-07-27T12:12:27.967Z,22.50
2022-07-27T12:14:58.694Z,22.90
2022-07-27T12:17:36.509Z,23.20
2022-07-27T12:20:03.293Z,23.20
2022-07-27T12:22:44.846Z,22.80
2022-07-27T12:25:32.703Z,22.60
2022-07-27T12:28:06.737Z,22.30
2022-07-27T12:30:48.489Z,22.10
2022-07-27T12:33:36.884Z,22.10
2022-07-27T12:36:11.392Z,22.00
2022-07-27T12:38:51.136Z,22.30
2022-07-27T12:41:32.606Z,22.40
2022-07-27T12:44:10.837Z,22.30
2022-07-27T12:47:01.957Z,22.30
2022-07-27T12:49:40.772Z,22.20
2022-07-27T12:52:11.087Z,22.40
2022-07-27T12:54:38.326Z,22.40
2022-07-27T12:57:05.086Z,22.80
2022-07-27T12:59:31.853Z,23.10
2022-07-27T13:01:58.696Z,23.10
2022-07-27T13:04:25.545Z,22.90
2022-07-27T13:06:52.241Z,22.70
2022-07-27T13:09:18.977Z,22.30
2022-07-27T13:11:48.101Z,22.10
2022-07-27T13:14:15.318Z,22.30
2022-07-27T13:16:42.109Z,22.20
2022-07-27T13:19:08.957Z,22.10
2022-07-27T13:21:35.843Z,22.20
2022-07-27T13:24:02.799Z,22.50
2022-07-27T13:26:29.513Z,22.80
2022-07-27T13:28:56.232Z,23.10
2022-07-27T13:31:23.052Z,23.10
2022-07-27T13:33:49.863Z,23.00
2022-07-27T13:36:16.740Z,23.00
2022-07-27T13:38:43.990Z,25.50
2022-07-27T13:41:10.782Z,22.80
2022-07-27T13:43:37.597Z,22.80
2022-07-27T13:46:05.001Z,22.90
2022-07-27T13:48:32.563Z,23.10
2022-07-27T13:50:59.362Z,22.80
2022-07-27T13:53:26.139Z,22.60
2022-07-27T13:55:53.005Z,22.30
2022-07-27T13:58:19.803Z,22.10
2022-07-27T14:00:46.852Z,22.30
2022-07-27T14:03:13.608Z,22.50
2022-07-27T14:05:45.411Z,22.40
2022-07-27T14:08:16.444Z,22.70
2022-07-27T14:10:43.185Z,22.00
2022-07-27T14:13:12.692Z,22.20
2022-07-27T14:15:52.967Z,22.40
2022-07-27T14:18:31.121Z,22.30
2022-07-27T14:21:01.286Z,22.50
2022-07-27T14:23:28.951Z,22.50
2022-07-27T14:25:57.440Z,22.40
2022-07-27T14:28:25.385Z,22.30
2022-07-27T14:30:53.653Z,22.00
2022-07-27T14:33:20.889Z,22.00
2022-07-27T14:35:48.115Z,21.90
2022-07-27T14:38:26.067Z,21.90
2022-07-27T14:40:57.613Z,22.10
2022-07-27T14:43:24.428Z,22.30
2022-07-27T14:45:51.118Z,22.20
2022-07-27T14:48:25.441Z,22.00
2022-07-27T14:50:59.675Z,21.90
2022-07-27T14:53:26.405Z,21.80
2022-07-27T14:55:58.138Z,21.90
2022-07-27T14:58:24.827Z,21.70
2022-07-27T15:00:52.684Z,22.00
2022-07-27T15:03:20.946Z,22.00
2022-07-27T15:05:49.598Z,22.30
2022-07-27T15:08:19.844Z,22.40
2022-07-27T15:10:47.220Z,22.60
2022-07-27T15:13:14.753Z,22.40
2022-07-27T15:15:41.887Z,22.00
2022-07-27T15:18:08.963Z,21.90
2022-07-27T15:20:35.891Z,21.90
2022-07-27T15:23:06.471Z,21.70
2022-07-27T15:25:33.784Z,21.60
2022-07-27T15:28:01.031Z,21.50
2022-07-27T15:30:27.868Z,21.40
2022-07-27T15:32:54.629Z,21.40
2022-07-27T15:35:21.391Z,21.30
2022-07-27T15:37:54.647Z,21.40
2022-07-27T15:40:37.340Z,21.40
2022-07-27T15:43:10.716Z,21.30
2022-07-27T15:45:39.170Z,21.20
2022-07-27T15:48:08.273Z,21.10
2022-07-27T15:50:36.123Z,21.00
2022-07-27T15:53:02.875Z,21.10
2022-07-27T15:55:29.659Z,21.20
2022-07-27T15:57:56.347Z,21.30
2022-07-27T16:00:23.491Z,21.40
2022-07-27T16:02:52.519Z,21.60
2022-07-27T16:05:20.612Z,21.50
2022-07-27T16:07:47.473Z,21.40
2022-07-27T16:10:14.220Z,21.50
2022-07-27T16:12:40.957Z,21.60
2022-07-27T16:15:08.355Z,21.60
2022-07-27T16:17:35.150Z,21.40
2022-07-27T16:20:01.876Z,21.20
2022-07-27T16:22:30.177Z,21.10
2022-07-27T16:24:56.898Z,21.10
2022-07-27T16:27:23.651Z,21.10
2022-07-27T16:29:50.369Z,21.20
2022-07-27T16:32:17.176Z,21.20
2022-07-27T16:34:43.954Z,21.30
2022-07-27T16:37:10.698Z,21.30
2022-07-27T16:39:37.899Z,21.40
2022-07-27T16:42:04.722Z,21.40
2022-07-27T16:44:31.527Z,21.50
2022-07-27T16:46:58.507Z,21.60
2022-07-27T16:49:33.633Z,21.60
2022-07-27T16:52:04.616Z,21.70
2022-07-27T16:54:35.599Z,21.60
2022-07-27T16:57:06.391Z,21.60
2022-07-27T16:59:33.111Z,21.60
2022-07-27T17:02:00.022Z,21.70
2022-07-27T17:04:27.840Z,21.70
2022-07-27T17:06:54.723Z,21.70
2022-07-27T17:09:21.463Z,21.70
2022-07-27T17:11:48.161Z,21.80
2022-07-27T17:14:18.273Z,21.80
2022-07-27T17:16:51.712Z,21.70
2022-07-27T17:19:26.623Z,21.20
2022-07-27T17:21:53.431Z,21.30
2022-07-27T17:24:20.352Z,21.00
2022-07-27T17:26:47.070Z,20.80
2022-07-27T17:29:14.125Z,20.70
2022-07-27T17:31:41.215Z,20.70
2022-07-27T17:34:08.158Z,20.70
2022-07-27T17:36:34.885Z,20.80
2022-07-27T17:39:02.372Z,20.80
2022-07-27T17:41:29.123Z,20.80
2022-07-27T17:43:56.592Z,20.70
2022-07-27T17:46:24.641Z,20.80
2022-07-27T17:48:53.305Z,20.90
2022-07-27T17:51:23.138Z,21.00
2022-07-27T17:53:50.125Z,21.00
2022-07-27T17:56:17.198Z,21.00
2022-07-27T17:58:43.955Z,20.90
2022-07-27T18:01:10.796Z,20.90
2022-07-27T18:03:37.655Z,20.80
2022-07-27T18:06:04.688Z,20.70
2022-07-27T18:08:31.536Z,20.70
2022-07-27T18:10:58.650Z,20.60
2022-07-27T18:16:07.975Z,20.60
2022-07-27T18:18:36.221Z,20.50
2022-07-27T18:21:03.553Z,20.40
2022-07-27T18:23:30.799Z,20.40
2022-07-27T18:25:57.711Z,20.30
2022-07-27T18:28:25.054Z,20.20
2022-07-27T18:30:52.990Z,20.10
2022-07-27T18:33:20.389Z,20.00
2022-07-27T18:35:47.629Z,19.90
2022-07-27T18:38:14.851Z,19.90
2022-07-27T18:40:45.888Z,19.80
2022-07-27T18:43:12.889Z,19.80
2022-07-27T18:45:40.664Z,19.70
2022-07-27T18:48:11.673Z,19.70
2022-07-27T18:50:40.153Z,19.70
2022-07-27T18:53:07.595Z,19.60
2022-07-27T18:55:34.287Z,19.50
2022-07-27T18:58:01.003Z,19.50
2022-07-27T19:00:28.599Z,19.50
2022-07-27T19:02:58.181Z,19.50
2022-07-27T19:05:30.015Z,19.40
2022-07-27T19:08:05.189Z,19.30
2022-07-27T19:10:33.835Z,19.30
2022-07-27T19:13:00.734Z,19.20
2022-07-27T19:15:27.584Z,19.20
2022-07-27T19:17:54.320Z,19.10
2022-07-27T19:20:21.206Z,19.10
2022-07-27T19:22:49.881Z,19.00
2022-07-27T19:25:16.840Z,18.90
2022-07-27T19:27:43.777Z,18.90
2022-07-27T19:30:12.308Z,18.80
2022-07-27T19:32:39.603Z,18.70
2022-07-27T19:35:07.849Z,18.60
2022-07-27T19:37:35.581Z,18.60
2022-07-27T19:40:20.294Z,18.50
2022-07-27T19:42:49.839Z,18.40
2022-07-27T19:45:16.694Z,18.30
2022-07-27T19:47:43.394Z,18.20
2022-07-27T19:50:10.542Z,18.20
2022-07-27T19:52:37.280Z,18.20
2022-07-27T19:55:06.478Z,18.00
2022-07-27T19:57:33.310Z,18.00
2022-07-27T20:00:01.037Z,18.00
2022-07-27T20:02:27.975Z,17.90
2022-07-27T20:04:54.741Z,17.80
2022-07-27T20:07:21.723Z,17.80
2022-07-27T20:09:48.552Z,17.60
2022-07-27T20:12:15.450Z,17.50
2022-07-27T20:14:43.485Z,17.50
2022-07-27T20:17:10.266Z,17.50
2022-07-27T20:19:37.059Z,17.40
2022-07-27T20:22:03.869Z,17.40
2022-07-27T20:24:30.774Z,17.40
2022-07-27T20:26:57.694Z,17.30
2022-07-27T20:29:24.830Z,17.20
2022-07-27T20:31:51.647Z,17.10
2022-07-27T20:34:23.249Z,18.00
2022-07-27T20:36:50.144Z,17.00
2022-07-27T20:39:17.739Z,16.90
2022-07-27T20:41:44.712Z,17.00
2022-07-27T20:44:11.564Z,16.90
2022-07-27T20:46:38.498Z,17.00
2022-07-27T20:49:05.338Z,16.90
2022-07-27T20:51:32.165Z,16.90
2022-07-27T20:53:58.928Z,16.90
2022-07-27T20:56:25.640Z,16.80
2022-07-27T20:58:52.444Z,14.30
2022-07-27T21:01:19.277Z,16.70
2022-07-27T21:03:46.158Z,16.60
2022-07-27T21:06:12.863Z,16.60
2022-07-27T21:08:44.369Z,16.60
2022-07-27T21:11:13.606Z,16.40
2022-07-27T21:13:40.825Z,16.30
2022-07-27T21:16:07.594Z,16.20
2022-07-27T21:18:34.495Z,16.10
2022-07-27T21:21:01.313Z,16.10
2022-07-27T21:23:46.569Z,16.10
2022-07-27T21:26:15.436Z,16.20
2022-07-27T21:28:47.902Z,16.20
2022-07-27T21:31:14.679Z,16.10
2022-07-27T21:33:41.414Z,16.00
2022-07-27T21:36:08.221Z,15.90
2022-07-27T21:38:34.924Z,16.00
2022-07-27T21:41:01.637Z,15.90
2022-07-27T21:43:28.364Z,16.00
2022-07-27T21:45:55.120Z,16.00
2022-07-27T21:48:21.874Z,16.00
2022-07-27T21:50:48.585Z,16.00
2022-07-27T21:53:15.390Z,16.00
2022-07-27T21:55:42.078Z,16.00
2022-07-27T21:58:12.102Z,16.10
2022-07-27T22:00:39.365Z,16.10
2022-07-27T22:03:06.950Z,16.00
2022-07-27T22:05:34.117Z,15.90
2022-07-27T22:08:01.477Z,15.80
2022-07-27T22:10:29.793Z,15.80
2022-07-27T22:13:00.710Z,15.80
2022-07-27T22:15:28.263Z,15.80
2022-07-27T22:17:55.108Z,15.80
2022-07-27T22:20:22.026Z,15.80
2022-07-27T22:22:49.930Z,15.80
2022-07-27T22:25:17.328Z,15.80
2022-07-27T22:27:44.224Z,15.80
2022-07-27T22:30:11.141Z,15.70
2022-07-27T22:32:37.840Z,15.70
2022-07-27T22:35:05.646Z,15.50
2022-07-27T22:37:32.361Z,15.40
2022-07-27T22:39:59.139Z,15.50
2022-07-27T22:42:25.898Z,15.50
2022-07-27T22:44:53.253Z,15.50
2022-07-27T22:47:19.976Z,15.30
2022-07-27T22:49:47.364Z,15.30
2022-07-27T22:52:14.194Z,15.30
2022-07-27T22:54:41.929Z,15.40
2022-07-27T22:57:08.676Z,15.30
2022-07-27T22:59:35.961Z,15.30
2022-07-27T23:02:03.534Z,15.30
2022-07-27T23:04:30.507Z,15.30
2022-07-27T23:06:57.756Z,15.30
2022-07-27T23:09:25.175Z,15.40
2022-07-27T23:11:53.018Z,15.30
2022-07-27T23:14:19.760Z,15.40
2022-07-27T23:16:46.682Z,15.30
2022-07-27T23:19:13.472Z,15.20
2022-07-27T23:21:41.883Z,15.30
2022-07-27T23:24:11.177Z,15.40
2022-07-27T23:26:40.298Z,15.30
2022-07-27T23:29:07.186Z,15.30
2022-07-27T23:31:34.267Z,15.30
2022-07-27T23:34:01.095Z,15.40
2022-07-27T23:36:27.913Z,15.30
2022-07-27T23:38:54.770Z,15.30
2022-07-27T23:41:21.544Z,15.30
2022-07-27T23:43:48.361Z,15.30
2022-07-27T23:46:15.124Z,15.30
2022-07-27T23:48:42.164Z,15.30
2022-07-27T23:51:09.150Z,15.30
2022-07-27T23:53:35.913Z,15.30
2022-07-27T23:56:02.638Z,15.40
2022-07-27T23:58:29.661Z,15.30
